Time;durP1;ratioP1;P1;durP2;ratioP2;P2;SDS_P1;SDS_P2;PMS_P1;PMS_P2;Temp;Humidity;BMP_temperature;BMP_pressure;BME280_temperature;BME280_humidity;BME280_pressure;Samples;Min_cycle;Max_cycle;Signal;HPM_P1;HPM_P2
2023/08/02 00:00:50;;;;;;;;;;;17.80;83.10;;;;;;4949164;28;20406;-69
2023/08/02 00:03:19;;;;;;;;;;;17.90;83.20;;;;;;4950822;28;19926;-69
2023/08/02 00:05:52;;;;;;;;;;;17.90;83.30;;;;;;4949772;28;19930;-67
2023/08/02 00:08:39;;;;;;;;;;;17.80;83.40;;;;;;4951274;28;19937;-67
2023/08/02 00:11:23;;;;;;;;;;;17.80;83.70;;;;;;4945081;28;19956;-68
2023/08/02 00:13:54;;;;;;;;;;;17.80;84.10;;;;;;4936413;28;19937;-68
2023/08/02 00:16:23;;;;;;;;;;;17.70;84.50;;;;;;4927666;29;19927;-67
2023/08/02 00:18:51;;;;;;;;;;;17.70;84.80;;;;;;4950010;28;19934;-67
2023/08/02 00:21:21;;;;;;;;;;;17.70;84.80;;;;;;4950753;28;20013;-68
2023/08/02 00:23:52;;;;;;;;;;;17.70;84.90;;;;;;4948212;28;19927;-68
2023/08/02 00:26:25;;;;;;;;;;;17.70;84.80;;;;;;4950372;28;19935;-67
2023/08/02 00:28:58;;;;;;;;;;;17.70;84.80;;;;;;4939418;28;19934;-68
2023/08/02 00:31:26;;;;;;;;;;;17.70;84.90;;;;;;4950303;28;19985;-69
2023/08/02 00:33:55;;;;;;;;;;;17.70;85.00;;;;;;4953534;28;20017;-68
2023/08/02 00:36:31;;;;;;;;;;;17.60;85.20;;;;;;4951267;28;19930;-69
2023/08/02 00:38:59;;;;;;;;;;;17.60;85.20;;;;;;4966788;28;19964;-67
2023/08/02 00:41:26;;;;;;;;;;;17.60;85.20;;;;;;4968257;28;19931;-69
2023/08/02 00:44:10;;;;;;;;;;;17.60;85.20;;;;;;4951794;28;19927;-69
2023/08/02 00:46:37;;;;;;;;;;;17.60;85.30;;;;;;4949450;28;19931;-70
2023/08/02 00:49:11;;;;;;;;;;;17.50;85.40;;;;;;4950294;28;19935;-68
2023/08/02 00:51:38;;;;;;;;;;;17.60;85.50;;;;;;4950513;28;20013;-69
2023/08/02 00:54:06;;;;;;;;;;;17.60;85.50;;;;;;4968521;28;20468;-69
2023/08/02 00:56:35;;;;;;;;;;;17.60;85.40;;;;;;4953976;28;19941;-68
2023/08/02 00:59:03;;;;;;;;;;;17.60;85.40;;;;;;4953799;28;19930;-68
2023/08/02 01:01:31;;;;;;;;;;;17.60;85.70;;;;;;4954423;28;19936;-69
2023/08/02 01:04:06;;;;;;;;;;;17.50;85.80;;;;;;4948747;28;20393;-69
2023/08/02 01:06:45;;;;;;;;;;;17.50;85.90;;;;;;4951495;28;19943;-69
2023/08/02 01:09:16;;;;;;;;;;;17.50;85.90;;;;;;4950879;28;19926;-70
2023/08/02 01:11:47;;;;;;;;;;;17.50;85.70;;;;;;4964831;28;19935;-68
2023/08/02 01:14:23;;;;;;;;;;;17.50;85.70;;;;;;4951590;28;19931;-68
2023/08/02 01:16:54;;;;;;;;;;;17.50;85.60;;;;;;4953831;28;19977;-69
2023/08/02 01:19:24;;;;;;;;;;;17.60;85.40;;;;;;4937086;28;19950;-67
2023/08/02 01:21:55;;;;;;;;;;;17.60;85.30;;;;;;4943385;28;20013;-69
2023/08/02 01:24:28;;;;;;;;;;;17.50;85.40;;;;;;4960247;28;20002;-69
2023/08/02 01:26:59;;;;;;;;;;;17.50;85.50;;;;;;4963947;28;19937;-70
2023/08/02 01:29:30;;;;;;;;;;;17.40;85.60;;;;;;4954175;28;19937;-68
2023/08/02 01:31:58;;;;;;;;;;;17.40;85.60;;;;;;4956043;28;20227;-67
2023/08/02 01:34:25;;;;;;;;;;;17.50;85.70;;;;;;4936289;28;20005;-68
2023/08/02 01:36:56;;;;;;;;;;;17.50;85.70;;;;;;4945643;28;19930;-68
2023/08/02 01:39:25;;;;;;;;;;;17.40;85.80;;;;;;4942940;28;19939;-69
2023/08/02 01:41:55;;;;;;;;;;;17.40;85.90;;;;;;4947858;28;20412;-68
2023/08/02 01:44:23;;;;;;;;;;;17.50;85.90;;;;;;4940509;28;19934;-69
2023/08/02 01:46:53;;;;;;;;;;;17.40;86.00;;;;;;4944348;28;20013;-63
2023/08/02 01:49:21;;;;;;;;;;;17.40;86.00;;;;;;4961119;28;19974;-65
2023/08/02 01:51:52;;;;;;;;;;;17.50;86.10;;;;;;4944885;28;19934;-65
2023/08/02 01:54:23;;;;;;;;;;;17.40;86.20;;;;;;4966861;28;19938;-64
2023/08/02 01:56:54;;;;;;;;;;;17.40;86.20;;;;;;4944791;28;19945;-66
2023/08/02 01:59:22;;;;;;;;;;;17.50;86.20;;;;;;4948914;28;19926;-66
2023/08/02 02:01:51;;;;;;;;;;;17.40;86.40;;;;;;4949325;28;20010;-66
2023/08/02 02:04:20;;;;;;;;;;;17.40;86.40;;;;;;4953073;28;20030;-65
2023/08/02 02:06:49;;;;;;;;;;;17.40;86.30;;;;;;4952209;28;19956;-66
2023/08/02 02:09:18;;;;;;;;;;;17.40;86.30;;;;;;4952667;28;20579;-65
2023/08/02 02:11:50;;;;;;;;;;;17.40;86.20;;;;;;4952515;28;19936;-66
2023/08/02 02:14:20;;;;;;;;;;;17.30;86.00;;;;;;4952101;28;20013;-66
2023/08/02 02:16:48;;;;;;;;;;;17.30;86.00;;;;;;4963879;28;19930;-66
2023/08/02 02:19:15;;;;;;;;;;;17.40;86.00;;;;;;4966427;28;19927;-66
2023/08/02 02:21:43;;;;;;;;;;;17.30;86.20;;;;;;4952719;28;19981;-66
2023/08/02 02:24:13;;;;;;;;;;;17.30;86.30;;;;;;4951826;28;19966;-66
2023/08/02 02:26:42;;;;;;;;;;;17.30;86.20;;;;;;4948159;28;19989;-65
2023/08/02 02:29:12;;;;;;;;;;;17.30;86.20;;;;;;4953150;28;19930;-66
2023/08/02 02:31:42;;;;;;;;;;;17.30;86.10;;;;;;4950737;28;19930;-66
2023/08/02 02:34:15;;;;;;;;;;;17.30;86.20;;;;;;4950814;28;19977;-67
2023/08/02 02:36:46;;;;;;;;;;;17.20;86.30;;;;;;4952256;28;20346;-65
2023/08/02 02:39:16;;;;;;;;;;;17.20;86.30;;;;;;4952488;28;19974;-65
2023/08/02 02:41:46;;;;;;;;;;;17.20;86.40;;;;;;4952049;28;20013;-65
2023/08/02 02:44:19;;;;;;;;;;;17.20;86.30;;;;;;4968201;28;19991;-65
2023/08/02 02:46:52;;;;;;;;;;;17.20;86.40;;;;;;4951995;28;19937;-66
2023/08/02 02:49:19;;;;;;;;;;;17.10;86.30;;;;;;4964817;28;20378;-65
2023/08/02 02:51:48;;;;;;;;;;;17.10;86.50;;;;;;4951666;28;19936;-65
2023/08/02 02:54:18;;;;;;;;;;;17.20;86.40;;;;;;4966407;28;19930;-65
2023/08/02 02:56:49;;;;;;;;;;;17.10;86.50;;;;;;4951407;28;19930;-65
2023/08/02 02:59:21;;;;;;;;;;;17.20;86.50;;;;;;4952483;28;19930;-65
2023/08/02 03:01:48;;;;;;;;;;;17.20;86.60;;;;;;4951283;28;19978;-65
2023/08/02 03:04:17;;;;;;;;;;;17.20;86.80;;;;;;4952334;28;20396;-65
2023/08/02 03:06:48;;;;;;;;;;;17.10;86.80;;;;;;4949700;28;19985;-68
2023/08/02 03:09:17;;;;;;;;;;;17.10;86.90;;;;;;4952179;28;19926;-68
2023/08/02 03:11:44;;;;;;;;;;;17.10;86.90;;;;;;4952231;28;19930;-69
2023/08/02 03:14:11;;;;;;;;;;;17.10;87.00;;;;;;4952574;28;20048;-68
2023/08/02 03:16:42;;;;;;;;;;;17.10;87.00;;;;;;4951216;28;20024;-68
2023/08/02 03:19:10;;;;;;;;;;;17.10;87.10;;;;;;4967196;28;19954;-68
2023/08/02 03:21:38;;;;;;;;;;;17.10;87.20;;;;;;4950755;28;19940;-68
2023/08/02 03:24:06;;;;;;;;;;;17.20;87.10;;;;;;4952460;28;19938;-68
2023/08/02 03:26:33;;;;;;;;;;;17.10;87.10;;;;;;4949270;28;19937;-68
2023/08/02 03:29:01;;;;;;;;;;;17.10;87.10;;;;;;4951517;28;20832;-68
2023/08/02 03:31:28;;;;;;;;;;;17.10;87.20;;;;;;4935331;28;19926;-68
2023/08/02 03:33:57;;;;;;;;;;;17.10;87.10;;;;;;4945423;28;19965;-68
2023/08/02 03:36:25;;;;;;;;;;;17.10;87.00;;;;;;4947615;28;20313;-68
2023/08/02 03:38:52;;;;;;;;;;;17.10;87.00;;;;;;4933454;28;20432;-68
2023/08/02 03:41:20;;;;;;;;;;;17.10;87.00;;;;;;4946876;28;19933;-68
2023/08/02 03:43:46;;;;;;;;;;;17.20;87.00;;;;;;4951598;28;20362;-68
2023/08/02 03:46:13;;;;;;;;;;;17.10;87.10;;;;;;4952231;28;19926;-68
2023/08/02 03:48:40;;;;;;;;;;;17.10;87.20;;;;;;4950844;28;19926;-68
2023/08/02 03:51:09;;;;;;;;;;;17.00;87.30;;;;;;4951285;28;20005;-68
2023/08/02 03:53:38;;;;;;;;;;;17.10;87.20;;;;;;4950763;28;19950;-69
2023/08/02 03:56:07;;;;;;;;;;;17.10;87.30;;;;;;4951786;28;19930;-68
2023/08/02 03:58:34;;;;;;;;;;;17.10;87.40;;;;;;4950918;28;19941;-69
2023/08/02 04:01:03;;;;;;;;;;;17.00;87.50;;;;;;4937817;28;20267;-70
2023/08/02 04:03:30;;;;;;;;;;;17.00;87.40;;;;;;4946592;28;19934;-68
2023/08/02 04:06:01;;;;;;;;;;;17.00;87.50;;;;;;4951391;28;20057;-68
2023/08/02 04:08:30;;;;;;;;;;;17.00;87.40;;;;;;4951791;28;19931;-68
2023/08/02 04:10:58;;;;;;;;;;;17.00;87.40;;;;;;4950313;28;20038;-68
2023/08/02 04:13:27;;;;;;;;;;;17.00;87.30;;;;;;4950693;28;19934;-69
2023/08/02 04:15:58;;;;;;;;;;;17.00;87.20;;;;;;4950790;28;19930;-63
2023/08/02 04:18:32;;;;;;;;;;;17.00;87.20;;;;;;4949751;28;19937;-72
2023/08/02 04:21:03;;;;;;;;;;;17.00;87.30;;;;;;4945294;28;19930;-72
2023/08/02 04:23:32;;;;;;;;;;;16.90;87.30;;;;;;4950069;28;19939;-72
2023/08/02 04:26:01;;;;;;;;;;;17.00;87.20;;;;;;4947613;28;19942;-74
2023/08/02 04:28:28;;;;;;;;;;;17.00;87.10;;;;;;4950071;28;19930;-72
2023/08/02 04:30:57;;;;;;;;;;;17.00;87.20;;;;;;4949761;28;19941;-73
2023/08/02 04:33:25;;;;;;;;;;;17.00;87.20;;;;;;4951413;28;19993;-72
2023/08/02 04:35:53;;;;;;;;;;;17.00;87.10;;;;;;4951784;28;20035;-72
2023/08/02 04:38:21;;;;;;;;;;;17.00;87.10;;;;;;4949210;28;19935;-71
2023/08/02 04:40:52;;;;;;;;;;;17.00;87.00;;;;;;4950386;28;19934;-74
2023/08/02 04:43:20;;;;;;;;;;;17.00;87.10;;;;;;4951073;28;19981;-73
2023/08/02 04:45:54;;;;;;;;;;;17.10;87.00;;;;;;4944349;28;20605;-73
2023/08/02 04:48:31;;;;;;;;;;;17.10;86.90;;;;;;4949739;28;19941;-72
2023/08/02 04:50:59;;;;;;;;;;;17.10;86.80;;;;;;4950433;28;20203;-73
2023/08/02 04:53:31;;;;;;;;;;;17.10;86.80;;;;;;4950537;28;19931;-72
2023/08/02 04:56:04;;;;;;;;;;;17.10;87.00;;;;;;4949413;28;20341;-72
2023/08/02 04:58:36;;;;;;;;;;;17.10;87.00;;;;;;4950341;28;19937;-72
2023/08/02 05:01:09;;;;;;;;;;;17.10;87.10;;;;;;4946911;28;19930;-73
2023/08/02 05:03:38;;;;;;;;;;;17.10;87.20;;;;;;4947823;28;20053;-71
2023/08/02 05:06:10;;;;;;;;;;;17.00;87.30;;;;;;4950316;28;20018;-72
2023/08/02 05:08:41;;;;;;;;;;;17.10;87.40;;;;;;4949029;28;19982;-72
2023/08/02 05:11:12;;;;;;;;;;;17.10;87.20;;;;;;4949695;28;20002;-73
2023/08/02 05:13:42;;;;;;;;;;;17.10;87.30;;;;;;4948485;28;20022;-73
2023/08/02 05:16:13;;;;;;;;;;;17.00;87.40;;;;;;4952370;28;20038;-72
2023/08/02 05:18:45;;;;;;;;;;;17.10;87.50;;;;;;4951770;28;20390;-73
2023/08/02 05:21:15;;;;;;;;;;;17.10;87.40;;;;;;4955425;28;20421;-73
2023/08/02 05:23:42;;;;;;;;;;;17.10;87.30;;;;;;4953925;28;20017;-72
2023/08/02 05:26:18;;;;;;;;;;;17.10;87.20;;;;;;4954802;28;19930;-67
2023/08/02 05:28:51;;;;;;;;;;;17.20;87.10;;;;;;4953652;28;20017;-66
2023/08/02 05:31:23;;;;;;;;;;;17.20;87.00;;;;;;4950185;28;19927;-69
2023/08/02 05:33:55;;;;;;;;;;;17.20;86.90;;;;;;4953406;28;20013;-66
2023/08/02 05:36:26;;;;;;;;;;;17.20;86.90;;;;;;4954999;28;19930;-69
2023/08/02 05:38:54;;;;;;;;;;;17.20;87.00;;;;;;4953609;28;20009;-68
2023/08/02 05:41:23;;;;;;;;;;;17.10;87.30;;;;;;4954626;28;20003;-68
2023/08/02 05:43:54;;;;;;;;;;;17.10;87.20;;;;;;4953652;28;20420;-69
2023/08/02 05:46:37;;;;;;;;;;;17.10;87.30;;;;;;4945967;28;19993;-68
2023/08/02 05:49:13;;;;;;;;;;;17.10;87.40;;;;;;4951276;28;19937;-66
2023/08/02 05:51:43;;;;;;;;;;;17.10;87.30;;;;;;4949343;28;20010;-67
2023/08/02 05:54:14;;;;;;;;;;;17.20;87.10;;;;;;4953686;28;19930;-67
2023/08/02 05:56:46;;;;;;;;;;;17.20;87.30;;;;;;4952655;28;20013;-68
2023/08/02 05:59:18;;;;;;;;;;;17.20;87.20;;;;;;4953095;28;19934;-69
2023/08/02 06:01:51;;;;;;;;;;;17.20;87.40;;;;;;4952486;28;19930;-66
2023/08/02 06:04:26;;;;;;;;;;;17.10;87.40;;;;;;4951887;28;19938;-67
2023/08/02 06:07:08;;;;;;;;;;;17.20;87.30;;;;;;4967813;28;19969;-69
2023/08/02 06:09:53;;;;;;;;;;;17.20;87.30;;;;;;4952599;28;19978;-67
2023/08/02 06:12:44;;;;;;;;;;;17.20;87.60;;;;;;4953671;28;19938;-68
2023/08/02 06:15:23;;;;;;;;;;;17.20;87.40;;;;;;4952925;28;20009;-67
2023/08/02 06:17:59;;;;;;;;;;;17.20;87.30;;;;;;4953884;28;19938;-67
2023/08/02 06:20:35;;;;;;;;;;;17.20;87.40;;;;;;4951277;28;19931;-68
2023/08/02 06:23:15;;;;;;;;;;;17.20;87.50;;;;;;4952377;28;19937;-68
2023/08/02 06:25:59;;;;;;;;;;;17.20;87.30;;;;;;4951130;28;20009;-67
2023/08/02 06:28:39;;;;;;;;;;;17.20;87.40;;;;;;4945476;28;19927;-67
2023/08/02 06:31:15;;;;;;;;;;;17.30;87.40;;;;;;4940175;28;19930;-70
2023/08/02 06:33:51;;;;;;;;;;;17.20;87.30;;;;;;4945537;28;19934;-69
2023/08/02 06:36:29;;;;;;;;;;;17.30;87.30;;;;;;4953221;28;19930;-68
2023/08/02 06:39:07;;;;;;;;;;;17.30;87.40;;;;;;4952560;28;19926;-68
2023/08/02 06:41:45;;;;;;;;;;;17.30;87.50;;;;;;4952688;28;19926;-69
2023/08/02 06:44:26;;;;;;;;;;;17.30;87.70;;;;;;4964117;28;20025;-68
2023/08/02 06:47:34;;;;;;;;;;;17.20;87.50;;;;;;4947585;28;19937;-69
2023/08/02 06:50:35;;;;;;;;;;;17.30;87.10;;;;;;4952115;28;19933;-70
2023/08/02 06:53:11;;;;;;;;;;;17.20;86.40;;;;;;4951714;28;19970;-69
2023/08/02 06:56:20;;;;;;;;;;;17.20;86.20;;;;;;4951347;28;19981;-69
2023/08/02 06:59:00;;;;;;;;;;;17.20;85.90;;;;;;4950727;28;20446;-69
2023/08/02 07:01:51;;;;;;;;;;;17.20;85.60;;;;;;4948193;28;19952;-69
2023/08/02 07:04:28;;;;;;;;;;;17.20;85.50;;;;;;4953001;28;19931;-70
2023/08/02 07:07:05;;;;;;;;;;;17.30;85.40;;;;;;4952032;28;19926;-69
2023/08/02 07:09:42;;;;;;;;;;;17.30;85.30;;;;;;4952109;28;19930;-69
2023/08/02 07:12:32;;;;;;;;;;;17.30;85.30;;;;;;4938909;28;19938;-68
2023/08/02 07:15:13;;;;;;;;;;;17.40;85.30;;;;;;4940426;28;20401;-69
2023/08/02 07:17:50;;;;;;;;;;;17.40;85.00;;;;;;4931840;29;19938;-69
2023/08/02 07:20:24;;;;;;;;;;;17.50;85.10;;;;;;4933161;28;20385;-69
2023/08/02 07:23:02;;;;;;;;;;;17.40;85.00;;;;;;4965702;28;20017;-70
2023/08/02 07:25:40;;;;;;;;;;;17.40;85.20;;;;;;4953044;28;19926;-70
2023/08/02 07:28:27;;;;;;;;;;;17.40;85.00;;;;;;4950828;28;19930;-70
2023/08/02 07:31:12;;;;;;;;;;;17.40;85.30;;;;;;4950905;28;19930;-69
2023/08/02 07:34:00;;;;;;;;;;;17.40;85.10;;;;;;4948221;28;20025;-69
2023/08/02 07:36:50;;;;;;;;;;;17.40;85.10;;;;;;4951098;28;20287;-68
2023/08/02 07:39:28;;;;;;;;;;;17.50;85.30;;;;;;4951679;28;19927;-69
2023/08/02 07:42:05;;;;;;;;;;;17.50;85.50;;;;;;4948625;28;19981;-68
2023/08/02 07:44:50;;;;;;;;;;;17.60;85.10;;;;;;4951822;28;19993;-68
2023/08/02 07:47:37;;;;;;;;;;;17.60;85.20;;;;;;4947405;28;19926;-72
2023/08/02 07:50:52;;;;;;;;;;;17.60;85.40;;;;;;4947442;28;19985;-72
2023/08/02 07:53:52;;;;;;;;;;;17.60;85.30;;;;;;4950603;28;20017;-72
2023/08/02 07:56:40;;;;;;;;;;;17.60;85.40;;;;;;4934448;28;19926;-73
2023/08/02 07:59:39;;;;;;;;;;;17.60;85.40;;;;;;4949608;28;20472;-72
2023/08/02 08:02:49;;;;;;;;;;;17.60;85.40;;;;;;4950784;28;19949;-73
2023/08/02 08:08:55;;;;;;;;;;;17.60;85.50;;;;;;4938767;28;19942;-71
2023/08/02 08:11:42;;;;;;;;;;;17.60;85.40;;;;;;4950532;28;20066;-72
2023/08/02 08:17:08;;;;;;;;;;;17.60;85.30;;;;;;4949796;28;19931;-72
2023/08/02 08:19:47;;;;;;;;;;;17.60;85.70;;;;;;4951766;28;19927;-72
2023/08/02 08:22:28;;;;;;;;;;;17.60;85.50;;;;;;4951690;28;19934;-72
2023/08/02 08:25:23;;;;;;;;;;;17.70;85.70;;;;;;4950892;28;19934;-72
2023/08/02 08:28:11;;;;;;;;;;;17.70;85.60;;;;;;4947025;28;20025;-72
2023/08/02 08:30:53;;;;;;;;;;;17.90;85.50;;;;;;4950328;28;19926;-72
2023/08/02 08:33:32;;;;;;;;;;;17.90;85.70;;;;;;4948890;28;19927;-73
2023/08/02 08:36:19;;;;;;;;;;;18.00;85.20;;;;;;4951160;28;19978;-72
2023/08/02 08:39:03;;;;;;;;;;;18.00;85.90;;;;;;4949763;28;19934;-72
2023/08/02 08:41:53;;;;;;;;;;;18.00;85.50;;;;;;4951096;28;20020;-72
2023/08/02 08:44:42;;;;;;;;;;;18.10;85.90;;;;;;4965133;28;20382;-71
2023/08/02 08:47:50;;;;;;;;;;;17.90;85.60;;;;;;4932444;28;20309;-72
2023/08/02 08:51:21;;;;;;;;;;;18.00;85.90;;;;;;4931033;28;19946;-72
2023/08/02 08:54:24;;;;;;;;;;;18.00;85.90;;;;;;4952268;28;19931;-73
2023/08/02 08:57:20;;;;;;;;;;;18.00;85.90;;;;;;4946200;28;20032;-72
2023/08/02 09:00:31;;;;;;;;;;;18.00;85.70;;;;;;4945178;28;19931;-73
2023/08/02 09:03:38;;;;;;;;;;;18.10;85.80;;;;;;4953591;28;19926;-72
2023/08/02 09:07:00;;;;;;;;;;;18.10;86.00;;;;;;4952288;28;19926;-73
2023/08/02 09:10:00;;;;;;;;;;;18.10;86.00;;;;;;4954205;28;20409;-73
2023/08/02 09:12:55;;;;;;;;;;;18.10;86.20;;;;;;4954404;28;19926;-72
2023/08/02 09:15:51;;;;;;;;;;;18.10;86.00;;;;;;4953617;28;20294;-71
2023/08/02 09:18:42;;;;;;;;;;;18.20;86.10;;;;;;4953661;28;20400;-72
2023/08/02 09:21:31;;;;;;;;;;;18.20;86.00;;;;;;4953841;28;19927;-72
2023/08/02 09:24:55;;;;;;;;;;;18.20;86.00;;;;;;4950722;28;19934;-73
2023/08/02 09:27:43;;;;;;;;;;;18.20;85.90;;;;;;4911784;29;19938;-73
2023/08/02 09:30:42;;;;;;;;;;;18.20;86.20;;;;;;4905903;29;19927;-73
2023/08/02 09:34:05;;;;;;;;;;;18.20;86.00;;;;;;4910567;29;20453;-73
2023/08/02 09:40:13;;;;;;;;;;;18.30;86.20;;;;;;4910470;29;19931;-73
2023/08/02 09:43:44;;;;;;;;;;;18.30;86.60;;;;;;4911512;29;20015;-72
2023/08/02 09:47:01;;;;;;;;;;;18.20;86.30;;;;;;4912321;29;19927;-70
2023/08/02 09:50:21;;;;;;;;;;;18.20;86.10;;;;;;4911618;29;20704;-73
2023/08/02 09:53:23;;;;;;;;;;;18.20;86.10;;;;;;4911224;29;19939;-72
2023/08/02 10:03:01;;;;;;;;;;;18.20;86.30;;;;;;4906246;29;19938;-72
2023/08/02 10:06:01;;;;;;;;;;;18.20;86.30;;;;;;4911201;29;19941;-72
2023/08/02 10:09:15;;;;;;;;;;;18.20;86.60;;;;;;4910982;29;20377;-73
2023/08/02 10:12:10;;;;;;;;;;;18.20;86.50;;;;;;4909072;29;19931;-73
2023/08/02 10:15:17;;;;;;;;;;;18.30;86.50;;;;;;4910949;29;19934;-73
2023/08/02 10:18:25;;;;;;;;;;;18.30;86.70;;;;;;4936234;28;19927;-73
2023/08/02 10:21:34;;;;;;;;;;;18.40;86.80;;;;;;4953451;28;19931;-72
2023/08/02 10:24:14;;;;;;;;;;;18.40;86.80;;;;;;4952689;28;19926;-72
2023/08/02 10:26:58;;;;;;;;;;;18.50;86.90;;;;;;4948940;28;19936;-72
2023/08/02 10:29:35;;;;;;;;;;;18.50;86.60;;;;;;4951974;28;20420;-71
2023/08/02 10:32:18;;;;;;;;;;;18.50;86.70;;;;;;4950943;28;19937;-72
2023/08/02 10:35:12;;;;;;;;;;;18.50;86.90;;;;;;4952443;28;20021;-71
2023/08/02 10:38:55;;;;;;;;;;;18.40;86.70;;;;;;4939458;28;19933;-72
2023/08/02 10:41:58;;;;;;;;;;;18.50;86.80;;;;;;4951745;28;19958;-72
2023/08/02 10:45:21;;;;;;;;;;;18.50;86.50;;;;;;4951317;28;19934;-71
2023/08/02 10:49:00;;;;;;;;;;;18.50;86.40;;;;;;4952585;28;19933;-71
2023/08/02 10:52:13;;;;;;;;;;;18.40;86.60;;;;;;4951789;28;19941;-72
2023/08/02 10:55:05;;;;;;;;;;;18.50;87.00;;;;;;4951055;28;19930;-72
2023/08/02 10:58:27;;;;;;;;;;;18.60;87.00;;;;;;4951504;28;20034;-71
2023/08/02 11:07:58;;;;;;;;;;;18.60;87.60;;;;;;4947929;28;19926;-72
2023/08/02 11:11:13;;;;;;;;;;;18.60;87.80;;;;;;4951459;28;19937;-71
2023/08/02 11:14:30;;;;;;;;;;;18.70;87.30;;;;;;4934968;28;19993;-71
2023/08/02 11:17:14;;;;;;;;;;;18.70;87.40;;;;;;4937495;28;19931;-72
2023/08/02 11:20:19;;;;;;;;;;;18.70;87.70;;;;;;4951508;28;19931;-71
2023/08/02 11:23:07;;;;;;;;;;;18.80;87.80;;;;;;4951123;28;20488;-71
2023/08/02 11:29:17;;;;;;;;;;;18.70;87.80;;;;;;4938728;28;19977;-71
2023/08/02 11:43:02;;;;;;;;;;;18.80;88.10;;;;;;4935146;28;19927;-72
2023/08/02 11:46:18;;;;;;;;;;;18.80;88.20;;;;;;4950172;28;20461;-63
2023/08/02 11:49:21;;;;;;;;;;;18.80;87.80;;;;;;4942083;28;19934;-70
2023/08/02 11:51:59;;;;;;;;;;;18.90;88.10;;;;;;4950529;28;19926;-70
2023/08/02 11:54:28;;;;;;;;;;;18.90;87.70;;;;;;4933575;28;19942;-70
2023/08/02 11:56:58;;;;;;;;;;;18.90;87.70;;;;;;4930139;28;19931;-70
2023/08/02 11:59:44;;;;;;;;;;;19.00;87.80;;;;;;4938000;28;19930;-70
2023/08/02 12:02:32;;;;;;;;;;;19.00;87.80;;;;;;4950350;28;19927;-70
2023/08/02 12:05:05;;;;;;;;;;;18.90;87.70;;;;;;4939072;28;19984;-71
2023/08/02 12:07:54;;;;;;;;;;;18.90;88.20;;;;;;4940690;28;19930;-70
2023/08/02 12:10:30;;;;;;;;;;;18.90;88.10;;;;;;4950962;28;19931;-70
2023/08/02 12:13:20;;;;;;;;;;;18.90;88.10;;;;;;4949830;28;19931;-70
2023/08/02 12:16:04;;;;;;;;;;;18.90;88.40;;;;;;4950150;28;19937;-69
2023/08/02 12:18:31;;;;;;;;;;;18.90;88.70;;;;;;4949972;28;19934;-70
2023/08/02 12:20:58;;;;;;;;;;;18.90;88.50;;;;;;4950587;28;20352;-70
2023/08/02 12:23:35;;;;;;;;;;;18.90;88.60;;;;;;4951462;28;19926;-71
2023/08/02 12:26:03;;;;;;;;;;;18.90;88.70;;;;;;4950171;28;19931;-70
2023/08/02 12:28:45;;;;;;;;;;;18.90;88.80;;;;;;4948589;28;19946;-70
2023/08/02 12:31:15;;;;;;;;;;;18.90;88.80;;;;;;4950250;28;19978;-71
2023/08/02 12:33:42;;;;;;;;;;;18.90;88.90;;;;;;4951177;28;20185;-71
2023/08/02 12:36:12;;;;;;;;;;;18.90;88.90;;;;;;4950985;28;19934;-70
2023/08/02 12:38:39;;;;;;;;;;;18.90;89.00;;;;;;4949894;28;19934;-69
2023/08/02 12:41:28;;;;;;;;;;;18.90;88.60;;;;;;4947052;28;19938;-70
2023/08/02 12:44:01;;;;;;;;;;;18.90;89.10;;;;;;4947814;28;19941;-70
2023/08/02 12:46:31;;;;;;;;;;;18.80;88.90;;;;;;4950364;28;20003;-71
2023/08/02 12:48:59;;;;;;;;;;;18.90;88.70;;;;;;4950149;28;20297;-70
2023/08/02 12:51:26;;;;;;;;;;;18.90;88.80;;;;;;4948881;28;19981;-70
2023/08/02 12:53:59;;;;;;;;;;;18.90;88.90;;;;;;4944311;28;19942;-70
2023/08/02 12:56:28;;;;;;;;;;;18.90;88.70;;;;;;4948999;28;19931;-62
2023/08/02 12:58:55;;;;;;;;;;;18.90;89.30;;;;;;4946019;28;20013;-63
2023/08/02 13:01:22;;;;;;;;;;;18.90;88.80;;;;;;4947558;28;20047;-62
2023/08/02 13:03:55;;;;;;;;;;;19.00;89.00;;;;;;4961043;28;20289;-64
2023/08/02 13:06:39;;;;;;;;;;;19.00;88.90;;;;;;4947544;28;20390;-63
2023/08/02 13:09:22;;;;;;;;;;;19.00;89.00;;;;;;4944784;28;19974;-64
2023/08/02 13:12:13;;;;;;;;;;;19.00;89.20;;;;;;4940993;28;19934;-62
2023/08/02 13:14:51;;;;;;;;;;;19.10;89.20;;;;;;4947994;28;20396;-64
2023/08/02 13:17:35;;;;;;;;;;;19.10;89.20;;;;;;4949042;28;19971;-64
2023/08/02 13:20:30;;;;;;;;;;;19.20;89.10;;;;;;4934792;28;20679;-63
2023/08/02 13:23:14;;;;;;;;;;;19.20;89.00;;;;;;4940678;28;19934;-64
2023/08/02 13:25:49;;;;;;;;;;;19.20;89.00;;;;;;4948223;28;19968;-63
2023/08/02 13:28:28;;;;;;;;;;;19.30;89.10;;;;;;4949460;28;19931;-63
2023/08/02 13:31:07;;;;;;;;;;;19.30;89.20;;;;;;4929315;28;19935;-62
2023/08/02 13:33:46;;;;;;;;;;;19.30;89.10;;;;;;4936466;28;19931;-62
2023/08/02 13:36:28;;;;;;;;;;;19.30;89.10;;;;;;4947987;28;19930;-63
2023/08/02 13:39:17;;;;;;;;;;;19.40;89.10;;;;;;4939054;28;19926;-64
2023/08/02 13:41:58;;;;;;;;;;;19.40;89.20;;;;;;4931169;29;19926;-61
2023/08/02 13:44:35;;;;;;;;;;;19.50;89.10;;;;;;4941984;28;19926;-63
2023/08/02 13:47:13;;;;;;;;;;;19.50;88.90;;;;;;4950569;28;19970;-62
2023/08/02 13:49:55;;;;;;;;;;;19.70;88.80;;;;;;4943540;28;20378;-64
2023/08/02 13:52:40;;;;;;;;;;;19.80;88.80;;;;;;4949938;28;19930;-63
2023/08/02 13:55:18;;;;;;;;;;;19.90;88.60;;;;;;4949960;28;20013;-63
2023/08/02 13:58:05;;;;;;;;;;;20.10;88.40;;;;;;4930706;28;19927;-63
2023/08/02 14:01:02;;;;;;;;;;;20.30;88.20;;;;;;4929918;29;19934;-63
2023/08/02 14:03:45;;;;;;;;;;;20.30;88.00;;;;;;4951301;28;19930;-66
2023/08/02 14:06:21;;;;;;;;;;;20.30;87.90;;;;;;4952704;28;19930;-63
2023/08/02 14:09:17;;;;;;;;;;;20.30;87.70;;;;;;4949824;28;19934;-63
2023/08/02 14:11:59;;;;;;;;;;;20.20;87.90;;;;;;4951037;28;20021;-63
2023/08/02 14:14:40;;;;;;;;;;;20.00;88.30;;;;;;4951014;28;20001;-64
2023/08/02 14:17:18;;;;;;;;;;;19.90;88.60;;;;;;4952950;28;19939;-61
2023/08/02 14:19:55;;;;;;;;;;;19.80;88.80;;;;;;4952719;28;19927;-63
2023/08/02 14:22:41;;;;;;;;;;;19.90;88.90;;;;;;4969507;28;19926;-65
2023/08/02 14:25:28;;;;;;;;;;;19.80;88.90;;;;;;4943909;28;19933;-64
2023/08/02 14:28:08;;;;;;;;;;;19.80;88.90;;;;;;4953125;28;19933;-62
2023/08/02 14:30:48;;;;;;;;;;;19.80;89.00;;;;;;4949886;28;19940;-64
2023/08/02 14:33:40;;;;;;;;;;;19.80;89.10;;;;;;4951839;28;20399;-64
2023/08/02 14:36:11;;;;;;;;;;;19.70;89.20;;;;;;4953787;28;19927;-64
2023/08/02 14:38:48;;;;;;;;;;;19.70;89.40;;;;;;4933777;28;19931;-65
2023/08/02 14:41:38;;;;;;;;;;;19.60;89.30;;;;;;4934859;29;20044;-64
2023/08/02 14:44:08;;;;;;;;;;;19.60;89.20;;;;;;4939545;28;19941;-64
2023/08/02 14:46:50;;;;;;;;;;;19.60;89.70;;;;;;4933861;28;19931;-63
2023/08/02 14:49:27;;;;;;;;;;;19.70;89.40;;;;;;4933262;28;19953;-64
2023/08/02 14:52:01;;;;;;;;;;;19.70;89.50;;;;;;4933167;28;20374;-64
2023/08/02 14:54:32;;;;;;;;;;;19.70;89.60;;;;;;4934202;28;19934;-63
2023/08/02 14:57:10;;;;;;;;;;;19.70;89.70;;;;;;4953647;28;19941;-64
2023/08/02 14:59:47;;;;;;;;;;;19.70;89.60;;;;;;4937906;28;20367;-63
2023/08/02 15:05:51;;;;;;;;;;;19.80;89.40;;;;;;4938261;28;19934;-64
2023/08/02 15:08:28;;;;;;;;;;;19.80;89.10;;;;;;4936757;28;19934;-64
2023/08/02 15:11:02;;;;;;;;;;;19.80;89.00;;;;;;4949106;28;20017;-65
2023/08/02 15:13:41;;;;;;;;;;;19.90;89.10;;;;;;4951550;28;19978;-64
2023/08/02 15:16:16;;;;;;;;;;;20.00;89.30;;;;;;4938284;28;20058;-68
2023/08/02 15:19:03;;;;;;;;;;;20.00;89.20;;;;;;4940758;28;19934;-68
2023/08/02 15:21:51;;;;;;;;;;;20.00;89.20;;;;;;4947654;28;20044;-69
2023/08/02 15:24:59;;;;;;;;;;;20.00;88.90;;;;;;4950156;28;19980;-69
2023/08/02 15:27:48;;;;;;;;;;;20.00;88.90;;;;;;4952512;28;20298;-69
2023/08/02 15:30:28;;;;;;;;;;;20.00;88.90;;;;;;4951031;28;19930;-68
2023/08/02 15:33:41;;;;;;;;;;;20.00;88.80;;;;;;4951770;28;19930;-69
2023/08/02 15:36:31;;;;;;;;;;;20.00;88.50;;;;;;4952962;28;19937;-68
2023/08/02 15:39:13;;;;;;;;;;;20.00;88.20;;;;;;4951662;28;19926;-69
2023/08/02 15:41:51;;;;;;;;;;;20.00;87.90;;;;;;4934250;28;19941;-70
2023/08/02 15:44:37;;;;;;;;;;;19.90;87.90;;;;;;4946268;28;19930;-68
2023/08/02 15:47:19;;;;;;;;;;;19.90;87.80;;;;;;4939145;28;19935;-64
2023/08/02 15:50:11;;;;;;;;;;;19.80;87.90;;;;;;4950689;28;20408;-68
2023/08/02 15:52:54;;;;;;;;;;;19.80;87.70;;;;;;4949395;28;20345;-68
2023/08/02 15:55:30;;;;;;;;;;;19.70;87.70;;;;;;4951161;28;19994;-67
2023/08/02 15:58:14;;;;;;;;;;;19.60;87.90;;;;;;4952412;28;19930;-68
2023/08/02 16:00:51;;;;;;;;;;;19.60;88.10;;;;;;4948533;28;19937;-68
2023/08/02 16:03:55;;;;;;;;;;;19.60;87.70;;;;;;4951077;28;20375;-68
2023/08/02 16:07:29;;;;;;;;;;;19.50;87.80;;;;;;4950010;28;20404;-68
2023/08/02 16:10:34;;;;;;;;;;;19.40;87.50;;;;;;4949256;28;19937;-68
2023/08/02 16:16:27;;;;;;;;;;;19.30;85.10;;;;;;4949390;28;20406;-68